Southern Sonoma County Latest

20 Stations

15 Minute Data
as of 5/3/26 4:46 PM PDT
Station Date Time Temp (°F) RH (%) Dew Pt (°F) Wind Spd (mph) Wind Dir (°) Wind Gust (mph) Latest Rain (In) Daily Rain (In) Daily Min Temp (°F) Daily Max Temp (°F)
Upper Rincon Valley 5/3/26 1645 58.9   2.6 64   14 46.7   2.8 3.5   0.6 SSW | 202 8.7   0.9 0.00 0.00 48.7   1.0 61.0   0.9
Lower Bennett Valley 5/3/26 1645 60.6   1.9 67   6 49.5   0.7 4.9   0.0 N | 355 11.6   1.4 0.00 0.00 51.7   1.2 63.9   1.9
Kenwood (Wildwood) 5/3/26 1645 60.4   0.7 65   5 48.7   2.6 5.4   0.1 NNW | 332 12.1   0.4 0.00 0.00 51.6   1.5 66.4   2.0
Crane Creek (Ranch 62) 5/3/26 1645 61.1   1.3 66   2 49.6   0.2 1.7   1.1 SW | 225 6.0   0.3 0.00 0.00 52.0   0.3 67.6   6.7
Rohnert Park-West (Stony Point) 5/3/26 1645 60.0   2.8 74   4 51.6   1.5 6.1   0.4 SW | 233 10.9   1.7 0.00 0.00 52.4   0.2 64.3   4.1
Rice-Spivak Vineyard 5/3/26 1645 60.4   2.7 - - - - - - - 51.8   0.1 66.5   4.0
Cartograph Wines Base 5/3/26 1645 58.3   2.9 78   6 51.6   0.9 7.9   2.0 SSW | 200 16.4   4.0 0.00 0.00 51.4   0.2 61.9   3.6
Cartograph Wines Remote 5/3/26 1645 59.9   2.8 - - - - - - - 52.1   0.0 64.0   3.6
Penngrove (Asellus) 5/3/26 1645 60.3   1.8 67   4 49.3   0.2 4.6   0.0 SW | 216 8.7   1.1 0.00 0.00 52.3   0.1 65.0   4.3
Sonoma Valley (Bedrock) 5/3/26 1645 60.5   1.6 61   3 47.1   2.9 - - - 0.00 0.00 50.7   4.9 65.0   0.3
Sonoma-West (Arnold) 5/3/26 1645 62.4   0.8 60   2 48.2   1.5 6.3   0.4 W | 270 13.0   2.0 0.00 0.00 53.2   7.8 66.2   1.4
Sonoma Valley HS 5/3/26 1645 62.7   0.5 66   4 51.4   1.0 2.6   2.5 W | 268 7.6   3.4 0.00 0.01 53.1   3.5 65.1   2.0
Sonoma East (Bundschu01) 5/3/26 1645 62.9   0.7 60   3 48.6   1.9 6.8   1.0 W | 280 14.2   2.4 0.00 0.00 53.2   4.6 65.3   1.3
Sonoma-SE (Napoli) 5/3/26 1645 63.4   0.5 57   3 47.9   1.7 6.2   0.4 W | 278 11.1   0.0 0.00 0.00 53.1   3.8 66.0   0.9
Schellville (Sasaki) 2/7/26 1900 53.4   2.2 88   10 49.9   1.0 3.3   1.8 SW | 225 5.8   4.0 0.00 0.00 47.0   0.8 62.8   8.4
Petaluma (Ranch 10) 5/3/26 1645 62.6   0.5 60   1 48.5   0.1 6.1   0.3 W | 277 10.9   0.8 0.00 0.00 53.5   1.1 66.9   2.8
Carneros (Ranch 71) 5/3/26 1645 62.0   1.0 60   2 48.0   1.6 10.9   1.9 W | 270 17.9   2.6 0.00 0.00 52.1   0.8 64.1   0.5
Ricci Vineyards (Carneros) 5/3/26 1645 63.0   1.7 61   0 49.4   1.4 8.8   2.3 WNW | 290 14.1   1.8 0.00 0.00 52.9   1.9 65.7   0.3
Carneros Upper (Ranch 81) 5/3/26 1645 61.0   2.3 61   1 47.4   2.0 11.6   1.8 W | 267 18.0   1.9 - - 52.1   0.0 64.8   0.9
Carneros Lower (Ranch 81) 5/3/26 1645 65.0   2.2 57   0 49.5   2.0 0.6   0.0 WSW | 257 6.9   0.5 0.00 0.00 53.0   0.4 69.4   1.0
Max     65.0 78 51.6 11.6 - 18.0 0.00 0.01 53.5 69.4
Avg     61.3 64 49.0 5.9 - 11.8 0.00 - - -
Min     58.3 57 46.7 0.6 - 6.0 0.00 0.00 48.7 61.0